Have a Safe July 4th! 

Flight Track Log - Related Links

Times and Time Zones

All times are in EDT time to prevent confusion due to time zone crossing. See the RLI811 flight status page for this flight to view local times or setup timezone preferences in your user account.

Time Position Orientation Groundspeed Altitude Reporting Facility
EDT Latitude Longitude Course Direction KTS MPH feet Rate Location/Type
Mon 05:27:22 AM 41.3167 -73.5500 310° West 139 160 2,700  Level New York TRACON
Mon 05:28:22 AM 41.2833 -73.5667 201° Southwest 146 168 3,700 1,000 Climbing New York TRACON
Mon 05:29:22 AM 41.3000 -73.5167 66° East 161 185 4,700 950 Climbing New York TRACON
Mon 05:30:22 AM 41.3167 -73.4667 66° East 159 183 5,600 850 Climbing New York TRACON
Mon 05:31:00 AM -14.1094 34.8862 310° West  Level Estimated
Mon 05:31:22 AM 41.3500 -73.4167 48° Northeast 162 186 6,400  Level New York TRACON
Mon 05:32:00 AM -14.0765 34.8452 310° West  Level Estimated
Mon 05:32:22 AM 41.3667 -73.3500 72° East 175 201 6,900  Level New York TRACON
Mon 05:34:00 AM 41.3558 -73.2386 97° East  Level FlightAware Approximate
Mon 05:35:16 AM 41.3667 -73.1500 97° East 196 226 6,900  Level New York TRACON
Mon 05:36:16 AM 41.3667 -73.0667 90° East 202 232 6,900  Level New York TRACON
Mon 05:38:16 AM 41.3667 -72.9333 90° East 195 224 6,900  Level New York TRACON
Mon 05:39:16 AM 41.3667 -72.8500 90° East 199 229 6,900  Level New York TRACON
Mon 05:41:16 AM 41.3500 -72.7000 98° East 199 229 6,900  Level New York TRACON
Mon 05:43:00 AM 41.3147 -72.5908 78° East  Level FlightAware Approximate
Mon 05:46:03 AM 41.3458 -72.3517 79° East 221 254 6,900  Level Boston Center
Mon 05:47:28 AM 41.3708 -72.2492 72° East 221 254 6,900  Level Boston Center
Mon 05:48:29 AM 41.3853 -72.1772 75° East 211 243 6,900  Level Boston Center
Mon 05:49:23 AM 41.3994 -72.1081 75° East 207 238 6,900 55 Level Boston Center
Mon 05:50:00 AM 41.3880 -72.1193 78° East  Level FlightAware Approximate
Mon 05:50:18 AM 41.4056 -72.0361 84° East 209 241 7,000  Level Boston Center
Mon 05:51:00 AM 41.3982 -72.0518 79° East  Level FlightAware Approximate
Mon 05:51:25 AM 41.4219 -71.9556 75° East 204 235 7,000  Level Boston Center
Mon 05:52:31 AM 41.4592 -71.8806 56° Northeast 214 246 7,000  Level Boston Center
Mon 05:53:26 AM 41.4964 -71.8303 45° Northeast 214 246 7,000  Level Boston Center
Mon 05:54:32 AM 41.5397 -71.7633 49° Northeast 215 247 7,000  Level Boston Center
Mon 05:55:27 AM 41.5706 -71.7019 56° Northeast 215 247 7,000  Level Boston Center
Mon 05:56:28 AM 41.6036 -71.6350 57° Northeast 213 245 7,000  Level Boston Center
Mon 05:57:28 AM 41.6383 -71.5733 53° Northeast 212 244 7,000  Level Boston Center
Mon 05:58:29 AM 41.6733 -71.5064 55° Northeast 214 246 7,000  Level Boston Center
Mon 05:59:23 AM 41.7042 -71.4475 55° Northeast 214 246 7,000  Level Boston Center
Mon 06:00:18 AM 41.7181 -71.3806 74° East 213 245 7,000  Level Boston Center
Mon 06:01:12 AM 41.7194 -71.3081 89° East 213 245 7,000 -261 Level Boston Center
Mon 06:02:13 AM 41.7103 -71.2247 98° East 217 250 6,500 -393 Descending Boston Center
Mon 06:03:14 AM 41.6989 -71.1472 101° East 218 251 6,200 -446 Descending Boston Center
Mon 06:04:14 AM 41.6958 -71.0667 93° East 220 253 5,600 -600 Descending Boston Center
Mon 06:06:00 AM 41.6803 -70.9598 101° East  Level FlightAware Approximate
Mon 06:13:00 AM 41.6667 -70.5280 90° East  Level FlightAware Approximate
Mon 06:14:00 AM 41.6667 -70.4664 90° East  Level FlightAware Approximate
Mon 06:15:00 AM 41.6667 -70.4048 90° East  Level FlightAware Approximate
Mon 06:16:00 AM 41.6667 -70.3432 90° East  Level FlightAware Approximate
Mon 06:17:00 AM 41.6667 -70.2816 90° East  Level FlightAware Approximate
Mon 06:18:00 AM 41.6693 -70.2804 90° East  Level Estimated
Mon 06:19:00 AM 41.6693 -70.2804 90° East  Level Estimated
Mon 06:20:00 AM 41.6693 -70.2804 90° East  Level Estimated
Mon 06:21:00 AM 41.6693 -70.2804 90° East  Level Estimated
Mon 06:22:00 AM 41.6693 -70.2804 90° East  Level Estimated
Mon 06:23:00 AM 41.6693 -70.2804 90° East  Level Estimated
Mon 06:24:00 AM 41.6693 -70.2804 90° East  Level Estimated
Mon 06:25:00 AM 41.6693 -70.2804 90° East  Level Estimated
Mon 06:26:00 AM 41.6693 -70.2804 90° East  Level Estimated

Login

Don't have an account? Register now (free) for customized features, flight alerts, and more!